• Join FlightAware (Why Join?)
  • Login
  • US Flag 
05:35AM EST


 

Airport Tracker/Info


-or-


 

Live Flight TrackerFlight Track Log ✈ SKW6345 ✈ 24-Dec-2013 ✈ KASE - KDEN

Flight Track Log - Related Links

Times and Time Zones

All times are in EST time to prevent confusion due to time zone crossing. See the SKW6345 flight status page for this flight to view local times or setup timezone preferences in your user account.

Time Position Orientation Groundspeed Altitude Reporting Facility
EST Latitude Longitude Course Direction KTS MPH feet Rate Location/Type
12:53PM 39.2433 -106.8742 72° East 178 205 9,700  Level Denver Center
12:54PM 39.2606 -106.9314 291° West 190 219 12,300 2,280 Climbing Denver Center
12:55PM 39.3208 -106.9428 352° North 251 289 14,500 2,400 Climbing Denver Center
12:56PM 39.3657 -106.3903 101° East  Level Estimated
12:56PM 39.3489 -106.7986 76° East 363 418 17,300  Level Denver Center
12:57PM 39.3327 -106.2693 109° East  Level FlightAware Approximate
12:57PM 39.3508 -106.6614 89° East 382 440 19,100  Level Denver Center
12:58PM 39.3726 -106.1519 90° East  Level Estimated
12:59PM 39.4085 -106.0460 72° East  Level Estimated
12:59PM 39.3522 -106.4522 89° East 441 507 21,000  Level Denver Center
01:00PM 39.3478 -106.2886 92° East 473 544 21,000  Level Denver Center
01:01PM 39.3600 -106.1117 85° East 484 557 21,000 -300 Level Denver Center
01:02PM 39.3703 -105.9381 86° East 485 558 20,400 -840 Descending Denver Center
01:03PM 39.3789 -105.7711 86° East 472 543 19,300 -1,020 Descending Denver Center
01:04PM 39.3889 -105.5892 86° East 420 483 18,400 -1,320 Descending Denver Center
01:05PM 39.4006 -105.3950 85° East 458 527 16,400 -1,680 Descending Denver Center
01:06PM 39.4064 -105.2331 87° East 449 517 14,700 -1,560 Descending Denver Center
01:07PM 39.4142 -105.0669 86° East 434 499 13,200 -960 Descending Denver Center
01:08PM 39.4275 -104.9289 83° East 396 456 12,800 -900 Descending Denver Center
01:09PM 39.5044 -104.8292 45° Northeast 368 423 11,400 -1,260 Descending Denver Center
01:10PM 39.5806 -104.7792 27° Northeast 311 358 10,200 -1,260 Descending Denver Center
01:11PM 39.6525 -104.7289 28° Northeast 280 322 8,800 -1,080 Descending Denver Center
01:12PM 39.7125 -104.6892 27° Northeast 247 284 8,000 -960 Descending Denver Center
01:13PM 39.7631 -104.6603 24° Northeast 181 208 6,900 -960 Descending Denver Center
01:14PM 39.8008 -104.6608 359° North 137 158 6,100 -720 Descending Denver Center
01:15PM 39.8364 -104.6603 North 129 148 5,500 -600 Descending Denver Center
01:17PM 39.8500 -104.6667 North  Level FlightAware Approximate
01:24PM 39.8617 -104.6732 North  Level Estimated